Time;durP1;ratioP1;P1;durP2;ratioP2;P2;SDS_P1;SDS_P2;PMS_P1;PMS_P2;Temp;Humidity;BMP_temperature;BMP_pressure;BME280_temperature;BME280_humidity;BME280_pressure;Samples;Min_cycle;Max_cycle;Signal;HPM_P1;HPM_P2
2021/03/30 00:02:02;;;;;;;72.55;45.03;;;;;;;5.39;76.98;101011.86;1770315;81;21113;-63
2021/03/30 00:04:30;;;;;;;71.92;44.93;;;;;;;5.38;76.77;101007.52;1750254;82;21215;-63
2021/03/30 00:06:58;;;;;;;71.12;42.95;;;;;;;5.33;76.83;101014.05;1752532;82;21622;-63
2021/03/30 00:09:26;;;;;;;59.77;39.88;;;;;;;5.30;76.79;101014.98;1751072;82;21159;-63
2021/03/30 00:11:53;;;;;;;53.35;35.78;;;;;;;5.34;76.54;101003.56;1773198;80;21178;-63
2021/03/30 00:14:21;;;;;;;63.10;37.75;;;;;;;5.45;75.98;101004.81;1747121;82;21160;-64
2021/03/30 00:16:48;;;;;;;62.05;39.60;;;;;;;5.45;75.71;101007.00;1757753;80;21152;-63
2021/03/30 00:19:17;;;;;;;64.97;41.37;;;;;;;5.40;75.79;101008.64;1763724;81;21224;-63
2021/03/30 00:21:45;;;;;;;69.15;41.95;;;;;;;5.30;75.98;101011.77;1747322;82;21637;-63
2021/03/30 00:24:12;;;;;;;62.35;39.60;;;;;;;5.27;76.14;101008.12;1748337;81;21292;-63
2021/03/30 00:26:39;;;;;;;59.63;38.50;;;;;;;5.34;75.86;101012.17;1762838;80;21632;-63
2021/03/30 00:29:07;;;;;;;53.92;35.70;;;;;;;5.33;75.75;101013.20;1755558;80;21165;-63
2021/03/30 00:31:34;;;;;;;48.73;32.88;;;;;;;5.29;75.60;101014.14;1747155;82;21169;-63
2021/03/30 00:34:02;;;;;;;61.15;38.73;;;;;;;5.26;75.27;101017.26;1772711;81;21566;-63
2021/03/30 00:36:30;;;;;;;52.33;36.23;;;;;;;5.26;75.33;101015.91;1700570;84;21349;-63
2021/03/30 00:38:58;;;;;;;61.45;42.67;;;;;;;5.26;75.21;101011.86;1703980;83;21157;-63
2021/03/30 00:41:25;;;;;;;59.55;40.67;;;;;;;5.19;75.74;101013.72;1675550;83;21173;-64
2021/03/30 00:43:52;;;;;;;69.70;43.23;;;;;;;5.09;76.16;101022.73;1702122;83;21633;-64
2021/03/30 00:46:20;;;;;;;62.27;41.08;;;;;;;5.03;76.56;101018.68;1759265;80;21303;-63
2021/03/30 00:48:49;;;;;;;67.85;44.95;;;;;;;5.01;76.78;101021.06;1765345;80;21145;-64
2021/03/30 00:51:17;;;;;;;66.85;43.25;;;;;;;5.02;76.92;101017.84;1672724;81;21190;-63
2021/03/30 00:53:57;;;;;;;65.75;44.15;;;;;;;5.00;77.24;101016.69;1770307;80;21618;-63
2021/03/30 00:56:37;;;;;;;67.37;42.17;;;;;;;5.00;77.55;101013.98;1773331;79;23155;-63
2021/03/30 00:59:04;;;;;;;62.88;39.33;;;;;;;4.96;77.65;101012.73;1698255;82;21145;-63
2021/03/30 01:01:32;;;;;;;55.23;36.38;;;;;;;5.04;77.35;101014.41;1668605;83;21127;-63
2021/03/30 01:04:01;;;;;;;50.28;34.05;;;;;;;5.15;76.68;101010.27;1701811;83;21149;-63
2021/03/30 01:06:29;;;;;;;50.00;32.53;;;;;;;5.15;76.15;101013.81;1692710;83;21191;-64
2021/03/30 01:09:31;;;;;;;46.23;31.30;;;;;;;5.14;75.71;101018.89;1709388;83;21101;-63
2021/03/30 01:12:35;;;;;;;49.98;32.60;;;;;;;5.12;75.32;101016.09;1699664;83;21193;-63
2021/03/30 01:15:23;;;;;;;43.90;29.35;;;;;;;5.19;74.81;101023.68;1716141;83;21710;-63
2021/03/30 01:18:14;;;;;;;48.75;29.82;;;;;;;5.11;74.25;100992.31;1707433;83;21169;-64
2021/03/30 01:21:26;;;;;;;47.50;30.40;;;;;;;5.22;74.12;101013.30;1693453;83;21305;-64
2021/03/30 01:24:26;;;;;;;46.18;29.52;;;;;;;5.20;74.04;101014.55;1719868;83;21130;-63
2021/03/30 01:27:03;;;;;;;45.12;27.77;;;;;;;5.12;73.75;101012.04;1708359;83;21121;-64
2021/03/30 01:29:45;;;;;;;40.45;27.02;;;;;;;5.11;73.58;101016.61;1715856;81;71726;-71
2021/03/30 01:32:33;;;;;;;46.90;30.25;;;;;;;5.07;73.78;101021.26;1709171;83;21291;-71
2021/03/30 01:35:01;;;;;;;48.35;29.42;;;;;;;4.85;74.49;101020.61;1674960;84;21158;-70
2021/03/30 01:37:28;;;;;;;52.40;34.85;;;;;;;4.59;75.46;101030.78;1674690;84;21346;-71
2021/03/30 01:39:58;;;;;;;48.13;32.48;;;;;;;4.37;75.98;101010.36;1696386;84;21697;-70
2021/03/30 01:42:28;;;;;;;58.20;35.13;;;;;;;4.37;76.65;101036.80;1684366;84;21554;-70
2021/03/30 01:44:56;;;;;;;53.52;34.80;;;;;;;4.22;77.39;101033.39;1668871;84;21526;-70
2021/03/30 01:47:23;;;;;;;50.63;33.20;;;;;;;4.18;77.85;101035.36;1669204;84;21574;-71
2021/03/30 01:49:51;;;;;;;46.08;33.30;;;;;;;4.14;78.20;101040.31;1660773;85;21613;-70
2021/03/30 01:52:19;;;;;;;48.95;32.88;;;;;;;4.01;78.66;101043.74;1654195;85;21174;-70
2021/03/30 01:54:48;;;;;;;54.48;34.67;;;;;;;3.99;78.96;101049.86;1668742;85;21206;-70
2021/03/30 01:57:29;;;;;;;55.60;34.95;;;;;;;4.04;79.20;101047.89;1678293;85;21657;-71
2021/03/30 01:59:58;;;;;;;52.55;35.00;;;;;;;4.03;79.46;101051.64;1675078;84;21219;-70
2021/03/30 02:02:26;;;;;;;51.37;31.80;;;;;;;3.96;79.82;101047.56;1664905;85;21182;-70
2021/03/30 02:04:54;;;;;;;46.18;31.33;;;;;;;4.04;79.77;101047.89;1680414;85;21289;-70
2021/03/30 02:07:23;;;;;;;48.10;31.60;;;;;;;4.10;79.60;101039.55;1679285;84;21559;-71
2021/03/30 02:09:53;;;;;;;50.55;33.33;;;;;;;4.08;79.59;101043.78;1665418;84;21174;-70
2021/03/30 02:12:22;;;;;;;52.90;33.63;;;;;;;4.09;79.59;101037.37;1660331;85;21198;-70
2021/03/30 02:14:49;;;;;;;52.30;34.30;;;;;;;4.21;79.23;101038.50;1666232;85;21221;-70
2021/03/30 02:17:31;;;;;;;47.85;33.18;;;;;;;4.39;78.77;101038.77;1678670;84;21175;-70
2021/03/30 02:20:08;;;;;;;52.30;33.42;;;;;;;4.46;78.60;101035.59;1666702;84;21586;-70
2021/03/30 02:22:53;;;;;;;47.78;30.15;;;;;;;4.47;78.31;101037.27;1672534;85;21594;-71
2021/03/30 02:25:21;;;;;;;48.80;31.12;;;;;;;4.46;77.95;101031.55;1675550;84;21338;-70
2021/03/30 02:27:51;;;;;;;48.83;32.33;;;;;;;4.50;77.66;101037.37;1670892;84;21687;-70
2021/03/30 02:30:20;;;;;;;50.70;33.38;;;;;;;4.48;77.51;101030.01;1686861;84;21166;-70
2021/03/30 02:32:48;;;;;;;48.55;30.30;;;;;;;4.30;77.92;101035.94;1678653;85;21591;-70
2021/03/30 02:35:18;;;;;;;49.03;30.75;;;;;;;4.18;78.28;101034.02;1642761;85;21219;-70
2021/03/30 02:37:46;;;;;;;50.12;32.50;;;;;;;4.24;78.17;101033.21;1661640;86;21610;-71
2021/03/30 02:40:15;;;;;;;47.95;31.85;;;;;;;4.23;78.23;101036.42;1673964;85;21308;-70
2021/03/30 02:42:45;;;;;;;48.15;32.25;;;;;;;4.24;78.32;101030.00;1667791;84;21182;-70
2021/03/30 02:45:16;;;;;;;48.70;31.27;;;;;;;4.28;78.39;101022.35;1666468;85;21208;-70
2021/03/30 02:47:45;;;;;;;49.58;31.62;;;;;;;4.43;77.96;101031.11;1670560;84;21123;-70
2021/03/30 02:50:14;;;;;;;50.95;32.95;;;;;;;4.56;77.34;101033.05;1665367;84;21217;-71
2021/03/30 02:52:42;;;;;;;55.83;32.60;;;;;;;4.55;77.27;101029.52;1674972;84;21131;-71
2021/03/30 02:55:11;;;;;;;47.05;30.70;;;;;;;4.49;77.25;101035.22;1678848;84;21166;-71
2021/03/30 02:57:42;;;;;;;50.00;32.03;;;;;;;4.43;77.34;101028.41;1688511;84;21596;-70
2021/03/30 03:00:11;;;;;;;49.23;31.65;;;;;;;4.45;77.29;101032.59;1670073;85;21751;-71
2021/03/30 03:02:38;;;;;;;47.40;31.02;;;;;;;4.50;77.12;101035.51;1664746;85;21167;-71
2021/03/30 03:05:08;;;;;;;54.15;33.92;;;;;;;4.49;77.23;101029.83;1665890;84;21198;-70
2021/03/30 03:07:37;;;;;;;51.90;33.42;;;;;;;4.45;77.50;101031.77;1660313;85;21647;-70
2021/03/30 03:10:07;;;;;;;50.10;32.23;;;;;;;4.44;77.62;101028.23;1662106;85;21240;-71
2021/03/30 03:12:39;;;;;;;48.58;29.95;;;;;;;4.43;77.41;101031.95;1663181;85;21181;-70
2021/03/30 03:15:11;;;;;;;43.98;29.05;;;;;;;4.54;76.91;101033.24;1675821;84;21675;-70
2021/03/30 03:17:40;;;;;;;43.33;30.40;;;;;;;4.71;76.27;101033.74;1659007;85;21164;-71
2021/03/30 03:20:10;;;;;;;46.70;30.40;;;;;;;4.73;76.00;101030.31;1664239;84;21629;-70
2021/03/30 03:22:38;;;;;;;48.00;29.27;;;;;;;4.70;75.82;101034.26;1670205;84;21166;-71
2021/03/30 03:25:34;;;;;;;46.95;29.27;;;;;;;4.70;75.64;101032.91;1674413;84;21196;-72
2021/03/30 03:28:02;;;;;;;48.75;28.67;;;;;;;4.69;75.45;101030.40;1679247;84;21625;-71
2021/03/30 03:30:31;;;;;;;41.90;26.57;;;;;;;4.78;75.02;101039.45;1677799;84;21176;-72
2021/03/30 03:33:09;;;;;;;42.48;26.00;;;;;;;4.86;74.60;101031.70;1696910;84;21189;-71
2021/03/30 03:35:38;;;;;;;43.35;27.77;;;;;;;4.85;74.50;101034.10;1696307;84;21142;-71
2021/03/30 03:38:06;;;;;;;41.98;27.30;;;;;;;4.83;74.40;101041.55;1696804;84;21563;-71
2021/03/30 03:40:33;;;;;;;43.13;26.85;;;;;;;4.81;74.10;101040.94;1696252;84;21181;-70
2021/03/30 03:43:02;;;;;;;43.20;27.32;;;;;;;4.81;74.00;101039.58;1697997;83;21308;-69
2021/03/30 03:45:30;;;;;;;41.20;26.37;;;;;;;4.88;73.73;101044.48;1697365;84;21206;-69
2021/03/30 03:47:57;;;;;;;37.35;26.42;;;;;;;5.00;73.23;101038.79;1696916;84;21321;-70
2021/03/30 03:50:25;;;;;;;41.98;28.10;;;;;;;4.98;73.14;101035.48;1685115;84;21169;-71
2021/03/30 03:52:54;;;;;;;45.30;27.37;;;;;;;4.97;73.34;101041.39;1696822;83;21178;-70
2021/03/30 03:55:22;;;;;;;39.90;27.62;;;;;;;4.96;73.25;101049.16;1696703;84;21158;-71
2021/03/30 03:58:02;;;;;;;45.83;28.25;;;;;;;4.92;73.27;101046.55;1680236;84;21683;-70
2021/03/30 04:00:30;;;;;;;41.18;27.37;;;;;;;4.95;73.17;101045.34;1697163;84;21806;-71
2021/03/30 04:03:21;;;;;;;45.45;28.25;;;;;;;5.03;72.88;101053.77;1669493;84;21758;-71
2021/03/30 04:06:10;;;;;;;45.43;29.18;;;;;;;5.00;72.69;101049.59;1696274;84;21300;-70
2021/03/30 04:08:45;;;;;;;47.40;29.80;;;;;;;4.96;72.19;101047.81;1696951;84;21210;-71
2021/03/30 04:11:13;;;;;;;47.45;31.65;;;;;;;4.95;72.00;101061.53;1696334;84;21316;-71
2021/03/30 04:13:40;;;;;;;51.15;33.20;;;;;;;4.94;71.68;101062.55;1688128;84;21185;-72
2021/03/30 04:16:08;;;;;;;50.83;32.45;;;;;;;5.05;71.52;101061.97;1694266;84;21633;-71
2021/03/30 04:18:40;;;;;;;48.25;31.50;;;;;;;5.16;71.12;101056.48;1698710;84;21201;-71
2021/03/30 04:21:15;;;;;;;48.42;30.88;;;;;;;5.15;70.95;101060.21;1689391;84;21207;-71
2021/03/30 04:23:49;;;;;;;46.25;30.70;;;;;;;5.13;70.94;101063.65;1676953;84;21629;-72
2021/03/30 04:26:13;;;;;;;45.03;29.95;;;;;;;5.11;70.95;101063.84;1696461;84;21341;-70
2021/03/30 04:28:41;;;;;;;47.50;29.48;;;;;;;5.09;70.83;101060.53;1696864;84;21161;-72
2021/03/30 04:31:08;;;;;;;44.40;28.35;;;;;;;5.16;70.59;101064.08;1689927;84;21206;-71
2021/03/30 04:33:36;;;;;;;42.85;28.00;;;;;;;5.28;70.09;101069.72;1679220;85;21328;-71
2021/03/30 04:36:05;;;;;;;43.85;27.80;;;;;;;5.28;69.92;101071.06;1679167;85;21239;-71
2021/03/30 04:38:32;;;;;;;42.27;28.17;;;;;;;5.25;69.88;101069.58;1677165;84;21178;-71
2021/03/30 04:41:00;;;;;;;43.10;28.10;;;;;;;5.24;69.52;101074.69;1678176;84;21297;-71
2021/03/30 04:43:28;;;;;;;40.28;26.82;;;;;;;5.22;69.45;101072.70;1679367;85;21585;-71
2021/03/30 04:45:55;;;;;;;41.40;26.42;;;;;;;5.32;68.93;101080.39;1677256;84;21654;-71
2021/03/30 04:48:23;;;;;;;42.17;27.22;;;;;;;5.41;68.58;101078.66;1681110;84;21190;-71
2021/03/30 04:50:52;;;;;;;42.43;28.10;;;;;;;5.41;68.67;101079.17;1681396;85;21324;-70
2021/03/30 04:53:19;;;;;;;40.95;27.48;;;;;;;5.39;68.69;101083.42;1667224;85;21174;-70
2021/03/30 04:55:46;;;;;;;42.90;29.20;;;;;;;5.40;69.03;101080.20;1669715;86;21609;-70
2021/03/30 04:58:13;;;;;;;43.87;28.80;;;;;;;5.40;69.02;101076.16;1666730;84;21194;-70
2021/03/30 05:00:41;;;;;;;41.08;28.02;;;;;;;5.49;68.83;101078.98;1668640;84;21142;-69
2021/03/30 05:03:09;;;;;;;46.63;28.57;;;;;;;5.59;68.31;101082.62;1678947;85;21308;-71
2021/03/30 05:05:38;;;;;;;46.37;28.47;;;;;;;5.59;68.50;101089.38;1670523;84;21215;-70
2021/03/30 05:08:06;;;;;;;42.70;27.65;;;;;;;5.58;67.99;101080.44;1662497;85;21180;-71
2021/03/30 05:10:34;;;;;;;40.90;26.80;;;;;;;5.61;67.93;101081.89;1659769;86;21174;-71
2021/03/30 05:13:04;;;;;;;40.43;26.90;;;;;;;5.65;67.99;101080.44;1660805;84;21154;-70
2021/03/30 05:15:31;;;;;;;42.62;27.07;;;;;;;5.68;67.74;101085.42;1663486;85;21162;-69
2021/03/30 05:17:59;;;;;;;39.98;26.68;;;;;;;5.79;67.29;101088.34;1667276;84;21139;-65
2021/03/30 05:20:27;;;;;;;42.95;26.23;;;;;;;5.95;67.05;101085.23;1668590;85;21235;-67
2021/03/30 05:22:55;;;;;;;43.48;27.37;;;;;;;5.98;66.69;101082.14;1681033;85;21150;-67
2021/03/30 05:25:25;;;;;;;42.27;26.25;;;;;;;6.00;66.40;101081.92;1675774;85;21165;-67
2021/03/30 05:27:53;;;;;;;45.52;26.85;;;;;;;6.03;65.91;101082.84;1659691;86;21190;-67
2021/03/30 05:31:27;;;;;;;40.55;26.87;;;;;;;6.10;65.49;101078.78;1892954;76;22850;-66
2021/03/30 05:33:55;;;;;;;39.83;26.40;;;;;;;6.08;65.53;101084.93;1863841;77;21525;-66
2021/03/30 05:36:22;;;;;;;39.78;26.75;;;;;;;6.08;64.32;101088.47;1848773;77;21322;-66
2021/03/30 05:38:51;;;;;;;44.20;27.00;;;;;;;6.10;63.91;101089.08;1830410;77;21502;-66
2021/03/30 05:41:19;;;;;;;42.60;26.20;;;;;;;6.22;64.36;101087.41;1830107;78;21198;-66
2021/03/30 05:43:46;;;;;;;38.20;26.52;;;;;;;6.35;63.91;101091.44;1830160;78;21717;-66
2021/03/30 05:46:14;;;;;;;38.90;28.67;;;;;;;6.33;63.69;101090.83;1862010;76;21611;-66
2021/03/30 05:48:44;;;;;;;41.88;28.00;;;;;;;6.32;63.94;101091.86;1863574;77;21109;-66
2021/03/30 05:51:12;;;;;;;42.98;29.10;;;;;;;6.32;64.28;101084.27;1862121;76;21113;-66
2021/03/30 05:53:45;;;;;;;46.15;30.68;;;;;;;6.33;64.79;101094.88;1863967;77;21596;-67
2021/03/30 05:56:13;;;;;;;46.73;29.70;;;;;;;6.34;65.03;101091.11;1863780;76;21545;-66
2021/03/30 05:58:43;;;;;;;44.60;29.77;;;;;;;6.44;65.02;101090.70;1821042;78;21181;-66
2021/03/30 06:01:13;;;;;;;46.50;29.10;;;;;;;6.52;64.22;101093.15;1814084;77;21144;-65
2021/03/30 06:03:41;;;;;;;42.50;28.77;;;;;;;6.48;64.04;101100.86;1847694;77;21124;-65
2021/03/30 06:06:09;;;;;;;41.10;29.12;;;;;;;6.44;63.60;101092.88;1835391;77;21578;-66
2021/03/30 06:08:36;;;;;;;42.58;27.93;;;;;;;6.44;63.58;101096.11;1859894;77;21259;-66
2021/03/30 06:11:06;;;;;;;43.83;28.42;;;;;;;6.42;63.12;101093.60;1863596;76;21287;-66
2021/03/30 06:13:54;;;;;;;38.95;26.35;;;;;;;6.44;62.95;101090.70;1860473;77;21647;-67
2021/03/30 06:16:39;;;;;;;44.77;28.38;;;;;;;6.44;62.87;101096.95;1841768;77;21138;-68
2021/03/30 06:19:17;;;;;;;40.03;25.57;;;;;;;6.51;62.88;101091.51;1830095;77;21541;-68
2021/03/30 06:22:02;;;;;;;36.00;24.87;;;;;;;6.71;62.11;101087.38;1824888;78;21564;-67
2021/03/30 06:24:32;;;;;;;36.98;23.40;;;;;;;6.88;60.75;101095.31;1823465;79;21156;-68
2021/03/30 06:27:13;;;;;;;39.10;24.45;;;;;;;7.07;60.79;101090.34;1823473;77;21117;-67
2021/03/30 06:29:41;;;;;;;35.58;23.22;;;;;;;7.36;59.32;101094.36;1831224;78;21168;-67
2021/03/30 06:32:17;;;;;;;33.78;21.10;;;;;;;7.68;56.74;101091.95;1834073;77;21131;-68
2021/03/30 06:34:50;;;;;;;30.85;20.85;;;;;;;7.93;54.61;101090.60;1833511;78;21181;-67
2021/03/30 06:37:31;;;;;;;32.42;20.10;;;;;;;8.14;54.07;101092.08;1858905;77;21153;-68
2021/03/30 06:40:10;;;;;;;37.75;23.38;;;;;;;8.33;53.05;101092.43;1867091;76;21160;-68
2021/03/30 06:42:46;;;;;;;33.45;22.55;;;;;;;8.49;54.19;101098.13;1866795;77;21651;-68
2021/03/30 06:45:25;;;;;;;36.38;23.12;;;;;;;8.68;52.83;101097.58;1866627;76;21121;-68
2021/03/30 06:47:56;;;;;;;37.73;22.73;;;;;;;8.79;51.98;101098.18;1809526;78;21141;-68
2021/03/30 06:50:34;;;;;;;33.90;23.10;;;;;;;8.91;51.81;101092.30;1807705;78;21609;-68
2021/03/30 06:53:11;;;;;;;34.98;23.27;;;;;;;9.05;52.15;101098.39;1833162;78;21528;-67
2021/03/30 06:55:52;;;;;;;37.28;23.10;;;;;;;9.18;51.45;101100.09;1830500;77;21557;-67
2021/03/30 06:58:22;;;;;;;35.60;21.40;;;;;;;9.29;51.17;101098.78;1854069;77;21286;-67
2021/03/30 07:00:50;;;;;;;34.05;21.87;;;;;;;9.40;50.50;101110.23;1832986;78;21132;-67
2021/03/30 07:03:20;;;;;;;29.42;19.02;;;;;;;9.49;50.49;101112.11;1848976;77;21139;-67
2021/03/30 07:05:51;;;;;;;27.45;16.77;;;;;;;9.64;48.77;101115.73;1863217;77;21135;-68
2021/03/30 07:08:21;;;;;;;22.65;14.87;;;;;;;9.89;48.15;101115.03;1856585;77;21144;-67
2021/03/30 07:10:54;;;;;;;21.60;14.80;;;;;;;10.04;45.93;101120.02;1866648;76;21608;-67
2021/03/30 07:13:23;;;;;;;24.23;14.70;;;;;;;10.11;45.49;101120.22;1848088;77;21130;-67
2021/03/30 07:15:57;;;;;;;20.32;14.83;;;;;;;10.19;44.80;101129.43;1834445;76;21137;-67
2021/03/30 07:18:44;;;;;;;20.88;13.40;;;;;;;10.33;45.08;101121.86;1832130;77;21584;-68
2021/03/30 07:21:20;;;;;;;21.97;13.30;;;;;;;10.39;43.44;101128.54;1866774;77;21093;-67
2021/03/30 07:23:57;;;;;;;20.45;12.53;;;;;;;10.33;42.56;101122.69;1866672;77;21516;-67
2021/03/30 07:26:44;;;;;;;20.20;12.37;;;;;;;10.33;42.78;101130.86;1863775;77;22433;-67
2021/03/30 07:29:15;;;;;;;;;;;;;;;10.47;42.84;101120.02;1868996;76;21112;-66
2021/03/30 07:32:21;;;;;;;21.57;11.45;;;;;;;10.60;42.94;101120.83;1863471;76;20249;-67
2021/03/30 07:35:00;;;;;;;18.65;11.38;;;;;;;10.61;42.08;101119.23;1840437;77;21168;-69
2021/03/30 07:37:50;;;;;;;21.68;11.83;;;;;;;10.67;41.99;101118.27;1829303;78;21136;-66
2021/03/30 07:40:18;;;;;;;16.48;11.28;;;;;;;10.77;41.11;101122.58;1829315;78;21178;-66
2021/03/30 07:42:47;;;;;;;20.85;10.85;;;;;;;10.91;41.30;101125.89;1829258;78;21109;-66
2021/03/30 07:45:17;;;;;;;17.27;10.38;;;;;;;10.99;40.50;101130.42;1850284;76;21613;-66
2021/03/30 07:47:44;;;;;;;21.42;12.03;;;;;;;11.09;38.54;101120.81;1859183;77;21656;-67
2021/03/30 07:50:13;;;;;;;17.57;11.18;;;;;;;11.17;40.10;101122.61;1791780;77;21176;-67
2021/03/30 07:52:48;;;;;;;17.50;10.72;;;;;;;11.21;38.95;101130.59;1825291;77;21580;-67
2021/03/30 07:55:29;;;;;;;16.65;10.05;;;;;;;11.30;37.95;101133.22;1829239;78;21210;-67
2021/03/30 07:58:11;;;;;;;14.70;9.50;;;;;;;11.43;37.51;101128.86;1830218;77;21172;-66
2021/03/30 08:00:48;;;;;;;16.00;9.53;;;;;;;11.58;38.29;101130.22;1845192;76;21467;-66
2021/03/30 08:03:24;;;;;;;16.12;9.95;;;;;;;11.76;37.99;101126.75;1860421;77;21132;-67
2021/03/30 08:06:21;;;;;;;16.73;9.75;;;;;;;11.95;37.23;101123.27;1831950;77;21576;-66
2021/03/30 08:08:58;;;;;;;15.03;9.58;;;;;;;12.13;36.89;101124.39;1824197;77;21078;-66
2021/03/30 08:11:48;;;;;;;13.22;9.15;;;;;;;12.22;35.07;101120.72;1829339;78;21573;-67
2021/03/30 08:14:23;;;;;;;15.13;9.53;;;;;;;12.24;36.02;101122.64;1811898;77;21156;-67
2021/03/30 08:16:54;;;;;;;17.12;10.72;;;;;;;12.38;36.75;101118.50;1823142;77;21077;-67
2021/03/30 08:19:26;;;;;;;16.17;9.60;;;;;;;12.48;36.48;101126.30;1818783;78;21560;-66
2021/03/30 08:22:07;;;;;;;15.90;9.40;;;;;;;12.57;35.99;101124.52;1797764;77;21200;-67
2021/03/30 08:24:49;;;;;;;13.85;9.38;;;;;;;12.51;34.94;101121.40;1838898;76;21173;-67
2021/03/30 08:27:37;;;;;;;14.23;8.65;;;;;;;12.49;34.26;101125.77;1832412;76;21149;-67
2021/03/30 08:30:16;;;;;;;14.00;10.00;;;;;;;12.38;34.82;101127.52;1854070;76;21557;-66
2021/03/30 08:32:46;;;;;;;17.30;10.63;;;;;;;12.38;35.85;101127.52;1768734;80;21116;-66
2021/03/30 08:35:33;;;;;;;16.50;10.70;;;;;;;12.36;34.93;101131.59;1812908;78;21255;-66
2021/03/30 08:38:02;;;;;;;;;;;;;;;12.41;36.04;101124.28;1783128;80;21158;-65
2021/03/30 08:40:41;;;;;;;15.55;9.85;;;;;;;12.45;35.50;101121.34;1776386;80;20153;-66
2021/03/30 08:43:20;;;;;;;20.57;10.20;;;;;;;12.46;35.90;101121.64;1765442;80;21161;-67
2021/03/30 08:46:11;;;;;;;13.45;9.10;;;;;;;12.57;36.15;101121.78;1796898;80;21196;-66
2021/03/30 08:48:51;;;;;;;15.08;9.65;;;;;;;12.76;37.18;101135.42;1789149;80;21172;-67
2021/03/30 08:51:20;;;;;;;17.80;10.03;;;;;;;12.91;35.38;101128.80;1787434;79;21170;-66
2021/03/30 08:53:50;;;;;;;14.68;9.70;;;;;;;13.10;36.69;101123.36;1791041;80;21137;-65
2021/03/30 08:56:27;;;;;;;13.43;8.45;;;;;;;13.18;34.78;101121.52;1784791;79;21153;-65
2021/03/30 08:58:57;;;;;;;14.73;8.95;;;;;;;13.25;34.83;101124.88;1777213;80;21283;-64
2021/03/30 09:01:25;;;;;;;15.25;9.40;;;;;;;13.26;35.31;101125.17;1776451;80;21193;-65
2021/03/30 09:03:54;;;;;;;13.75;8.88;;;;;;;13.33;34.67;101123.06;1784644;80;21452;-65
2021/03/30 09:06:36;;;;;;;14.43;9.33;;;;;;;13.49;35.24;101119.14;1778195;80;21561;-65
2021/03/30 09:09:20;;;;;;;15.45;8.65;;;;;;;13.48;34.44;101119.67;1772427;80;21296;-66
2021/03/30 09:11:47;;;;;;;12.88;7.87;;;;;;;13.40;33.69;101120.96;1753950;80;21577;-66
2021/03/30 09:14:20;;;;;;;12.78;7.97;;;;;;;13.27;34.83;101116.44;1797271;80;21141;-66
2021/03/30 09:16:51;;;;;;;11.33;7.15;;;;;;;13.31;34.02;101114.31;1792626;80;21223;-66
2021/03/30 09:19:30;;;;;;;10.20;7.40;;;;;;;13.38;34.76;101114.94;1797082;80;21129;-66
2021/03/30 09:22:05;;;;;;;12.60;7.87;;;;;;;13.36;33.74;101108.88;1793832;80;21148;-65
2021/03/30 09:24:49;;;;;;;10.80;7.50;;;;;;;13.16;34.59;101107.29;1765837;81;21639;-66
2021/03/30 09:27:12;;;;;;;82.72;50.70;;;;;;;13.06;34.18;101100.30;1768926;80;21307;-66
2021/03/30 09:29:40;;;;;;;31.48;18.80;;;;;;;13.03;35.39;101105.45;1789148;80;21557;-65
2021/03/30 09:32:09;;;;;;;44.20;28.62;;;;;;;12.93;34.15;101095.23;1773006;80;21144;-66
2021/03/30 09:34:43;;;;;;;13.90;9.65;;;;;;;12.93;34.47;101096.60;1732160;81;21300;-65
2021/03/30 09:37:11;;;;;;;192.03;117.82;;;;;;;12.95;34.67;101095.25;1766394;81;21180;-66
2021/03/30 09:39:41;;;;;;;37.00;22.77;;;;;;;13.08;35.71;101095.94;1770230;80;21149;-66
2021/03/30 09:42:11;;;;;;;53.75;36.53;;;;;;;13.23;33.85;101094.25;1752506;81;21168;-66
2021/03/30 09:44:42;;;;;;;30.25;19.23;;;;;;;13.31;33.95;101088.33;1773223;80;21919;-66
2021/03/30 09:47:14;;;;;;;16.00;9.95;;;;;;;13.37;34.86;101087.83;1776002;80;21144;-66
2021/03/30 09:49:44;;;;;;;30.68;18.48;;;;;;;13.29;34.06;101093.21;1754350;80;21624;-66
2021/03/30 09:52:13;;;;;;;27.45;16.15;;;;;;;13.37;34.60;101090.03;1769767;80;21598;-65
2021/03/30 09:54:43;;;;;;;27.62;15.95;;;;;;;13.42;34.70;101092.83;1768960;81;21217;-65
2021/03/30 09:57:16;;;;;;;81.67;45.88;;;;;;;13.53;34.57;101088.82;1743860;81;21152;-66
2021/03/30 09:59:46;;;;;;;42.33;25.35;;;;;;;13.67;34.96;101091.42;1769512;81;21371;-65
2021/03/30 10:02:15;;;;;;;50.80;30.15;;;;;;;13.71;33.96;101087.89;1769837;80;21289;-67
2021/03/30 10:04:43;;;;;;;13.70;9.08;;;;;;;13.65;34.44;101089.47;1755242;80;21592;-66
2021/03/30 10:07:17;;;;;;;14.63;10.23;;;;;;;13.64;34.00;101086.47;1779879;80;21852;-66
2021/03/30 10:10:07;;;;;;;55.12;28.75;;;;;;;13.70;34.39;101079.95;1768811;81;21188;-66
2021/03/30 10:13:00;;;;;;;15.08;9.73;;;;;;;13.87;35.21;101083.38;1769900;80;21639;-66
2021/03/30 10:15:40;;;;;;;13.60;9.60;;;;;;;14.02;34.42;101076.67;1774811;80;21215;-65
2021/03/30 10:18:10;;;;;;;17.45;10.65;;;;;;;14.12;34.41;101071.81;1749017;81;21161;-66
2021/03/30 10:20:51;;;;;;;16.40;9.83;;;;;;;14.24;33.32;101066.41;1769615;80;21150;-66
2021/03/30 10:23:22;;;;;;;90.35;49.05;;;;;;;14.27;32.74;101070.02;1768225;80;21180;-68
2021/03/30 10:25:52;;;;;;;22.20;13.43;;;;;;;14.14;34.03;101073.19;1758674;80;21147;-65
2021/03/30 10:28:30;;;;;;;11.40;7.97;;;;;;;14.18;33.42;101073.48;1768565;80;21137;-66
2021/03/30 10:31:07;;;;;;;26.30;16.17;;;;;;;14.02;33.38;101060.78;1782661;80;21576;-65
2021/03/30 10:33:43;;;;;;;37.78;21.52;;;;;;;13.86;34.24;101059.29;1782595;79;21551;-66
2021/03/30 10:36:15;;;;;;;24.07;14.35;;;;;;;13.79;34.25;101061.95;1762036;80;21376;-65
2021/03/30 10:39:07;;;;;;;12.88;9.20;;;;;;;13.66;34.15;101053.66;1756123;80;21566;-65
2021/03/30 10:41:44;;;;;;;18.55;10.23;;;;;;;13.50;35.25;101054.58;1776532;79;22961;-60
2021/03/30 10:44:17;;;;;;;21.87;13.40;;;;;;;13.41;34.44;101051.50;1725900;82;21349;-60
2021/03/30 10:46:45;;;;;;;17.00;11.45;;;;;;;13.44;34.52;101053.72;1722640;82;21137;-60
2021/03/30 10:49:15;;;;;;;16.35;11.00;;;;;;;13.51;34.41;101043.09;1718454;82;21172;-60
2021/03/30 10:51:45;;;;;;;15.08;10.43;;;;;;;13.60;34.14;101034.18;1705157;83;21181;-61
2021/03/30 10:54:15;;;;;;;14.90;9.43;;;;;;;13.71;34.94;101046.04;1700911;83;21609;-61
2021/03/30 10:56:44;;;;;;;13.68;8.40;;;;;;;13.80;34.60;101042.55;1651073;87;21145;-60
2021/03/30 10:59:15;;;;;;;12.98;8.48;;;;;;;13.84;34.40;101048.33;1666105;85;21150;-60
2021/03/30 11:01:42;;;;;;;15.05;9.03;;;;;;;13.92;34.93;101047.85;1665901;85;21479;-61
2021/03/30 11:04:10;;;;;;;71.50;51.95;;;;;;;14.03;33.40;101043.28;1656181;86;21243;-58
2021/03/30 11:06:38;;;;;;;94.67;67.32;;;;;;;14.09;33.86;101037.57;1634375;88;21180;-59
2021/03/30 11:09:07;;;;;;;24.12;16.45;;;;;;;14.17;33.56;101030.78;1678508;85;22063;-58
2021/03/30 11:11:35;;;;;;;32.80;20.55;;;;;;;14.17;32.77;101035.69;1681092;85;21362;-60
2021/03/30 11:14:06;;;;;;;19.20;11.97;;;;;;;14.13;32.84;101032.39;1676816;84;21156;-60
2021/03/30 11:16:33;;;;;;;16.45;11.70;;;;;;;14.05;32.72;101030.97;1661490;85;21848;-59
2021/03/30 11:19:01;;;;;;;17.85;11.15;;;;;;;14.02;33.55;101033.41;1669423;85;21178;-59
2021/03/30 11:21:29;;;;;;;21.27;12.53;;;;;;;14.13;33.98;101039.23;1672479;85;21157;-59
2021/03/30 11:26:36;;;;;;;12.85;9.08;;;;;;;14.58;32.46;101031.85;1771064;79;22924;-58
2021/03/30 11:29:03;;;;;;;14.28;10.10;;;;;;;14.59;32.93;101030.77;1706149;82;21157;-58
2021/03/30 11:34:13;;;;;;;13.10;8.68;;;;;;;14.62;31.81;101026.12;1722433;83;21168;-60
2021/03/30 11:36:41;;;;;;;14.65;9.80;;;;;;;14.70;32.38;101021.50;1710568;83;21184;-60
2021/03/30 11:39:09;;;;;;;13.30;9.60;;;;;;;14.75;32.78;101020.14;1699722;83;21198;-59
2021/03/30 11:41:36;;;;;;;22.58;9.63;;;;;;;14.77;32.56;101017.39;1720045;83;21600;-60
2021/03/30 11:44:04;;;;;;;16.07;10.95;;;;;;;14.82;32.37;101009.20;1715364;83;21170;-58
2021/03/30 11:46:31;;;;;;;15.85;10.63;;;;;;;14.92;32.72;101011.14;1694838;83;21560;-59
2021/03/30 11:49:00;;;;;;;14.90;10.45;;;;;;;14.85;32.02;101016.88;1704180;83;21736;-59